Sherwood, MD

12:56 PM EST on November 26, 2014 (GMT -0500)
Rolles Creek | Change Station
CLOSE
Current Station
Personal Weather Station
Location: St Michaels, MD
Elevation: 6 ft
Nearby Weather Stations

Elev 6 ft 38.78 °N, 76.25 °W | Updated 9 seconds ago

Rain
Rain
36.9 °F
Feels Like 32 °F
N
6.3
Wind Variable Wind from NNE
Gusts 13.8 mph

Today
High -- | Low -- °F
--% Chance of Precip.
Yesterday
High -- | Low -- °F
Precip. -- in
6:59 AM 4:45 PM
Waxing Crescent, 21% visible
Pressure 29.92 in
Visibility 3.0 miles
Clouds Mostly Cloudy 800 ft
Overcast 1100 ft
Windchill 32 °F
Dew Point 35 °F
Humidity 94%
Rainfall 1.05 in
Snow Depth Not available.
UV 0.0 out of 12
Pollen .10 out of 12
Air Quality Not available.
Flu Activity Not available.
METAR KESN 261750Z 02013G17KT 3SM RA BR BKN008 OVC011 03/03 A2992

More Conditions Fewer Conditions

Pressure 29.92 in
Visibility 3.0 miles
Clouds Mostly Cloudy 800 ft
Overcast 1100 ft
Windchill 32 °F
Dew Point 35 °F
Humidity 94%
Rainfall 1.05 in
Snow Depth Not available.
UV 0.0 out of 12
Pollen .10 out of 12
Air Quality Not available.
Flu Activity Not available.
METAR KESN 261750Z 02013G17KT 3SM RA BR BKN008 OVC011 03/03 A2992

More Conditions Fewer Conditions

Nowcast | as of 11:46 am EST on November 26, 2014

Light to moderate rain will continue across the area into the afternoon hours. Some snow or sleet will mix in as well. Temperatures will remain in the mid to upper 30s. Northeast winds around 10 to 15 mph with gusts around 20 mph will continue as well. A few isolated lightning strikes and rumbles of thunder may also occur. Drivers are urged to use caution and be alert for changing weather conditions and roadway conditions.

×

10-Day Weather Forecast

Almanac

Astronomy

Nov. 26, 2014 Rise Set
Actual Time
Civil Twilight
Nautical Twilight
Astronomical Twilight
Moon
Length of Visible Light
Length of Day
Tomorrow will be .
, % of the Moon is Illuminated

Today's Extremes

State Highs State Lows

Community

WunderPhotos

Upload Photos

1,773,808 photos uploaded!

WunderBlogs® & News

Nearby

Air Quality

  Air Quality AQ Index Pollutant
Not available.

Snow Depth

Station Depth Elevation

Earthquake Activity

City Distance Mag. Time & Date
Minimum magnitude displayed is 2.5.

Coastal Water Temperatures

Place Temperature

Nearby Weather Stations